Cotes De Bretagne — FW3973 — position and weather

sailwx.info

Track history (hours):
 
Tides and Currents Weather Stations Pressure Air Temp Water Temp Dewpoint Dewpoint Depression Visibility Wind Speed Wind Dir Waves Ship Positions

Cotes De Bretagne

Last reported at 2014-Sep-18 16:06 UTC. Time now 2014-Sep-19 13:50 UTC.
Position N 48°26' W 004°50'.

Length 75 m; draft 2.5 m.

Type: Dredging. MMSI: 227003850.

Date/timePositionNaut miles runAvg speedWind from/ knotsBaromVisibWave heightAir tempDewpointWater temp
2014-Sep-18 16:06N 48°26' W 004°50'5 9.0
2014-Sep-18 15:33N 48°22' W 004°49'9 9.2
2014-Sep-18 14:34N 48°13' W 004°45'10 9.8
2014-Sep-18 13:33N 48°03' W 004°47'9 8.9
2014-Sep-18 12:33N 47°56' W 004°38'47 9.4
2014-Sep-18 07:33N 47°40' W 003°32'8 8.2
2014-Sep-18 06:34N 47°44' W 003°21'0 0.1
2014-Sep-18 05:33N 47°44' W 003°21'0 0.0
2014-Sep-18 04:33N 47°44' W 003°21'0 0.0
2014-Sep-18 03:33N 47°44' W 003°21'0 0.0
2014-Sep-18 02:34N 47°44' W 003°21'0 0.0
2014-Sep-18 01:33N 47°44' W 003°21'0 0.0
2014-Sep-18 00:33N 47°44' W 003°21'0 0.0
2014-Sep-17 23:33N 47°44' W 003°21'0 0.0
2014-Sep-17 22:34N 47°44' W 003°21'0 0.0
2014-Sep-17 21:33N 47°44' W 003°21'0 0.0
2014-Sep-17 20:33N 47°44' W 003°21'0 0.0
2014-Sep-17 19:33N 47°44' W 003°21'0 0.0
2014-Sep-17 18:33N 47°44' W 003°21'0 0.0
2014-Sep-17 17:33N 47°44' W 003°21'0 0.0
2014-Sep-17 16:33N 47°44' W 003°21'0 0.0
2014-Sep-17 15:33N 47°44' W 003°21'0 0.0
2014-Sep-17 14:33N 47°44' W 003°21'0 0.0
2014-Sep-17 13:33N 47°44' W 003°21'0 0.0
2014-Sep-17 12:33N 47°44' W 003°21'0 0.0
2014-Sep-17 11:33N 47°44' W 003°21'0 0.0
2014-Sep-17 10:33N 47°44' W 003°21'0 0.1
2014-Sep-17 09:33N 47°44' W 003°21'0 0.0
2014-Sep-17 08:34N 47°44' W 003°21'0 0.0
2014-Sep-17 07:33N 47°44' W 003°21'0 0.0
2014-Sep-17 06:33N 47°44' W 003°21'0 0.0
2014-Sep-17 05:33N 47°44' W 003°21'0 0.0
2014-Sep-17 04:33N 47°44' W 003°21'0 0.0
2014-Sep-17 03:34N 47°44' W 003°21'0 0.0
2014-Sep-17 02:33N 47°44' W 003°21'0 0.0
2014-Sep-17 01:33N 47°44' W 003°21'0 0.0
2014-Sep-17 00:34N 47°44' W 003°21'0 0.0
2014-Sep-16 23:34N 47°44' W 003°21'0 0.2
2014-Sep-16 22:34N 47°44' W 003°21'1 1.3
2014-Sep-16 21:33N 47°45' W 003°19'0 0.0
2014-Sep-16 20:34N 47°45' W 003°19'1 1.4
2014-Sep-16 19:34N 47°44' W 003°21'0 0.0
2014-Sep-16 18:34N 47°44' W 003°21'0 0.0
2014-Sep-16 17:34N 47°44' W 003°21'0 0.0
2014-Sep-16 16:33N 47°44' W 003°21'0 0.0
2014-Sep-16 15:33N 47°44' W 003°21'0 0.0
2014-Sep-16 14:33N 47°44' W 003°21'0 0.0
2014-Sep-16 13:34N 47°44' W 003°21'0 0.0
2014-Sep-16 12:33N 47°44' W 003°21'0 0.0
2014-Sep-16 11:33N 47°44' W 003°21'0 0.0
2014-Sep-16 10:33N 47°44' W 003°21'0 0.0
2014-Sep-16 09:33N 47°44' W 003°21'0 0.0
2014-Sep-16 08:33N 47°44' W 003°21'0 0.0
2014-Sep-16 07:34N 47°44' W 003°21'7 6.9
2014-Sep-16 06:33N 47°37' W 003°21'11 9.1
2014-Sep-16 05:19N 47°28' W 003°11'7 8.9
2014-Sep-16 04:32N 47°23' W 003°05'50 9.3
2014-Sep-15 23:09N 46°45' W 002°16'6 8.8
2014-Sep-15 22:30N 46°41' W 002°11'9 9.1
2014-Sep-15 21:33N 46°34' W 002°04'9 8.9
2014-Sep-15 20:34N 46°26' W 001°57'9 8.8
2014-Sep-15 19:33N 46°19' W 001°50'10 9.0
2014-Sep-15 18:29N 46°11' W 001°42'5 1.3
2014-Sep-15 14:25N 46°15' W 001°46'1011.3
2014-Sep-15 13:33N 46°23' W 001°54'1111.4
2014-Sep-15 12:33N 46°33' W 002°03'1211.3
2014-Sep-15 11:32N 46°42' W 002°13'5 0.1
2014-Sep-13 16:34N 46°38' W 002°09'9 9.2
2014-Sep-13 15:33N 46°31' W 002°01'9 9.2
2014-Sep-13 14:33N 46°23' W 001°53'9 9.3
2014-Sep-13 13:33N 46°16' W 001°45'7 1.8
2014-Sep-13 09:33N 46°09' W 001°40'1010.0
2014-Sep-13 08:34N 46°17' W 001°48'1010.2
2014-Sep-13 07:34N 46°26' W 001°56'1010.4
2014-Sep-13 06:33N 46°35' W 002°05'1010.4
2014-Sep-13 05:34N 46°43' W 002°14'50 9.9
2014-Sep-13 00:32N 47°21' W 003°02'11 9.5
2014-Sep-12 23:22N 47°26' W 003°16'46 6.8
2014-Sep-12 16:33N 47°58' W 004°06'6 6.1
2014-Sep-12 15:33N 47°52' W 004°07'8 7.9
2014-Sep-12 14:33N 47°47' W 003°58'21 9.8
2014-Sep-12 12:26N 47°35' W 003°33'25 2.1
2014-Sep-12 00:15N 47°21' W 003°01'27 9.9
2014-Sep-11 21:32N 47°35' W 003°35'2110.4
2014-Sep-11 19:33N 47°47' W 003°60'9 9.5
2014-Sep-11 18:33N 47°54' W 004°09'0 0.0
2014-Sep-11 15:33N 47°54' W 004°09'8 7.9
2014-Sep-11 14:33N 47°48' W 004°02'7 7.5
2014-Sep-11 13:33N 47°45' W 003°52'12 8.9
2014-Sep-11 12:15N 47°38' W 003°38'31 2.4
2014-Sep-10 23:22N 47°20' W 003°00'17 9.4
2014-Sep-10 21:33N 47°29' W 003°22'41 5.8
2014-Sep-10 14:33N 47°55' W 004°09'29 8.7
2014-Sep-10 11:15N 47°36' W 003°36'2810.4
2014-Sep-10 08:31N 47°20' W 003°01'2310.1
2014-Sep-10 06:13N 47°08' W 002°32'710.0
2014-Sep-10 05:33N 47°06' W 002°23'18 3.0
2014-Sep-09 23:30N 47°14' W 002°47'1110.4
2014-Sep-09 22:29N 47°20' W 002°60'3010.1
2014-Sep-09 19:33N 47°36' W 003°36'2110.7
2014-Sep-09 17:33N 47°48' W 004°03'8 7.9
2014-Sep-09 16:33N 47°56' W 004°08'8 2.1
2014-Sep-09 12:33N 47°48' W 004°02'60 4.3
2014-Sep-08 22:33N 47°15' W 002°48'1110.2
2014-Sep-08 21:28N 47°21' W 003°02'2410.1
2014-Sep-08 19:07N 47°34' W 003°31'  
Track history (hours):
 
Tides and Currents Weather Stations Pressure Air Temp Water Temp Dewpoint Dewpoint Depression Visibility Wind Speed Wind Dir Waves Ship Positions

Cotes De Bretagne

Last reported at 2014-Sep-18 16:06 UTC. Time now 2014-Sep-19 13:50 UTC.
Position N 48°26' W 004°50'.

Length 75 m; draft 2.5 m.

Type: Dredging. MMSI: 227003850.

Date/timePositionNaut miles runAvg speedWind from/ knotsBaromVisibWave heightAir tempDewpointWater temp
2014-Sep-18 16:06N 48°26' W 004°50'5 9.0
2014-Sep-18 15:33N 48°22' W 004°49'9 9.2
2014-Sep-18 14:34N 48°13' W 004°45'10 9.8
2014-Sep-18 13:33N 48°03' W 004°47'9 8.9
2014-Sep-18 12:33N 47°56' W 004°38'47 9.4
2014-Sep-18 07:33N 47°40' W 003°32'8 8.2
2014-Sep-18 06:34N 47°44' W 003°21'0 0.1
2014-Sep-18 05:33N 47°44' W 003°21'0 0.0
2014-Sep-18 04:33N 47°44' W 003°21'0 0.0
2014-Sep-18 03:33N 47°44' W 003°21'0 0.0
2014-Sep-18 02:34N 47°44' W 003°21'0 0.0
2014-Sep-18 01:33N 47°44' W 003°21'0 0.0
2014-Sep-18 00:33N 47°44' W 003°21'0 0.0
2014-Sep-17 23:33N 47°44' W 003°21'0 0.0
2014-Sep-17 22:34N 47°44' W 003°21'0 0.0
2014-Sep-17 21:33N 47°44' W 003°21'0 0.0
2014-Sep-17 20:33N 47°44' W 003°21'0 0.0
2014-Sep-17 19:33N 47°44' W 003°21'0 0.0
2014-Sep-17 18:33N 47°44' W 003°21'0 0.0
2014-Sep-17 17:33N 47°44' W 003°21'0 0.0
2014-Sep-17 16:33N 47°44' W 003°21'0 0.0
2014-Sep-17 15:33N 47°44' W 003°21'0 0.0
2014-Sep-17 14:33N 47°44' W 003°21'0 0.0
2014-Sep-17 13:33N 47°44' W 003°21'0 0.0
2014-Sep-17 12:33N 47°44' W 003°21'0 0.0
2014-Sep-17 11:33N 47°44' W 003°21'0 0.0
2014-Sep-17 10:33N 47°44' W 003°21'0 0.1
2014-Sep-17 09:33N 47°44' W 003°21'0 0.0
2014-Sep-17 08:34N 47°44' W 003°21'0 0.0
2014-Sep-17 07:33N 47°44' W 003°21'0 0.0
2014-Sep-17 06:33N 47°44' W 003°21'0 0.0
2014-Sep-17 05:33N 47°44' W 003°21'0 0.0
2014-Sep-17 04:33N 47°44' W 003°21'0 0.0
2014-Sep-17 03:34N 47°44' W 003°21'0 0.0
2014-Sep-17 02:33N 47°44' W 003°21'0 0.0
2014-Sep-17 01:33N 47°44' W 003°21'0 0.0
2014-Sep-17 00:34N 47°44' W 003°21'0 0.0
2014-Sep-16 23:34N 47°44' W 003°21'0 0.2
2014-Sep-16 22:34N 47°44' W 003°21'1 1.3
2014-Sep-16 21:33N 47°45' W 003°19'0 0.0
2014-Sep-16 20:34N 47°45' W 003°19'1 1.4
2014-Sep-16 19:34N 47°44' W 003°21'0 0.0
2014-Sep-16 18:34N 47°44' W 003°21'0 0.0
2014-Sep-16 17:34N 47°44' W 003°21'0 0.0
2014-Sep-16 16:33N 47°44' W 003°21'0 0.0
2014-Sep-16 15:33N 47°44' W 003°21'0 0.0
2014-Sep-16 14:33N 47°44' W 003°21'0 0.0
2014-Sep-16 13:34N 47°44' W 003°21'0 0.0
2014-Sep-16 12:33N 47°44' W 003°21'0 0.0
2014-Sep-16 11:33N 47°44' W 003°21'0 0.0
2014-Sep-16 10:33N 47°44' W 003°21'0 0.0
2014-Sep-16 09:33N 47°44' W 003°21'0 0.0
2014-Sep-16 08:33N 47°44' W 003°21'0 0.0
2014-Sep-16 07:34N 47°44' W 003°21'7 6.9
2014-Sep-16 06:33N 47°37' W 003°21'11 9.1
2014-Sep-16 05:19N 47°28' W 003°11'7 8.9
2014-Sep-16 04:32N 47°23' W 003°05'50 9.3
2014-Sep-15 23:09N 46°45' W 002°16'6 8.8
2014-Sep-15 22:30N 46°41' W 002°11'9 9.1
2014-Sep-15 21:33N 46°34' W 002°04'9 8.9
2014-Sep-15 20:34N 46°26' W 001°57'9 8.8
2014-Sep-15 19:33N 46°19' W 001°50'10 9.0
2014-Sep-15 18:29N 46°11' W 001°42'5 1.3
2014-Sep-15 14:25N 46°15' W 001°46'1011.3
2014-Sep-15 13:33N 46°23' W 001°54'1111.4
2014-Sep-15 12:33N 46°33' W 002°03'1211.3
2014-Sep-15 11:32N 46°42' W 002°13'5 0.1
2014-Sep-13 16:34N 46°38' W 002°09'9 9.2
2014-Sep-13 15:33N 46°31' W 002°01'9 9.2
2014-Sep-13 14:33N 46°23' W 001°53'9 9.3
2014-Sep-13 13:33N 46°16' W 001°45'7 1.8
2014-Sep-13 09:33N 46°09' W 001°40'1010.0
2014-Sep-13 08:34N 46°17' W 001°48'1010.2
2014-Sep-13 07:34N 46°26' W 001°56'1010.4
2014-Sep-13 06:33N 46°35' W 002°05'1010.4
2014-Sep-13 05:34N 46°43' W 002°14'50 9.9
2014-Sep-13 00:32N 47°21' W 003°02'11 9.5
2014-Sep-12 23:22N 47°26' W 003°16'46 6.8
2014-Sep-12 16:33N 47°58' W 004°06'6 6.1
2014-Sep-12 15:33N 47°52' W 004°07'8 7.9
2014-Sep-12 14:33N 47°47' W 003°58'21 9.8
2014-Sep-12 12:26N 47°35' W 003°33'25 2.1
2014-Sep-12 00:15N 47°21' W 003°01'27 9.9
2014-Sep-11 21:32N 47°35' W 003°35'2110.4
2014-Sep-11 19:33N 47°47' W 003°60'9 9.5
2014-Sep-11 18:33N 47°54' W 004°09'0 0.0
2014-Sep-11 15:33N 47°54' W 004°09'8 7.9
2014-Sep-11 14:33N 47°48' W 004°02'7 7.5
2014-Sep-11 13:33N 47°45' W 003°52'12 8.9
2014-Sep-11 12:15N 47°38' W 003°38'31 2.4
2014-Sep-10 23:22N 47°20' W 003°00'17 9.4
2014-Sep-10 21:33N 47°29' W 003°22'41 5.8
2014-Sep-10 14:33N 47°55' W 004°09'29 8.7
2014-Sep-10 11:15N 47°36' W 003°36'2810.4
2014-Sep-10 08:31N 47°20' W 003°01'2310.1
2014-Sep-10 06:13N 47°08' W 002°32'710.0
2014-Sep-10 05:33N 47°06' W 002°23'18 3.0
2014-Sep-09 23:30N 47°14' W 002°47'1110.4
2014-Sep-09 22:29N 47°20' W 002°60'3010.1
2014-Sep-09 19:33N 47°36' W 003°36'2110.7
2014-Sep-09 17:33N 47°48' W 004°03'8 7.9
2014-Sep-09 16:33N 47°56' W 004°08'8 2.1
2014-Sep-09 12:33N 47°48' W 004°02'60 4.3
2014-Sep-08 22:33N 47°15' W 002°48'1110.2
2014-Sep-08 21:28N 47°21' W 003°02'2410.1
2014-Sep-08 19:07N 47°34' W 003°31'  

Dump ship's entire track history